Ornslund, Denmark
Current Conditions -  °F | °C
As of 2:50 PM on Wednesday 26 Nov 2014 (Local Time) from EKOD Reporting Station
Scattered Clouds Scattered Clouds  
Wind Chill:   Ceiling: Unl
Heat Index:   Visibility: 6mi
Dew Point:   Wind: 8mph
Humidity: 93%   Direction: 120°ESE
Pressure: 30.21"   Gusts: NA
Location:  55.7°N, 10.6°E
Report Text: EKOD 261350Z 12007KT 9999 SCT021 06/05 Q1023
Loading
Personal Weather Stations






























Interactive Weather Map New forecast layout! Learn more

10-Day Weather Forecast

Advertisements
Track Severe Weather on mobile